M I D A S
Marine Information and Data Acquisition System
Tripno 1239 of the Zeeleeuw from 2007-03-26 07:10:47 to 2007-03-26 15:19:56
Back to CruiseResearch ActivitiesStationsMapUnderway DataData graphs

EquipmentUnitsComment
TimeDGPSUTC
LatitudeDGPSDM.mWGS84
LongitudeDGPSDM.mWGS84
HeadingGyrodeg 
SOGDGPSknotsSpeed over ground
COGDGPSdegCourse over ground
DepthEcho soundermeters200 kHz
Missing or incorrect values are displayed as -999
Navigation data collected by the RV Zeeleeuw from 2007-03-26 06:50:44 to 2007-03-26 15:31:24
Time Latitude Longitude Heading SOG COG Depth
2007-03-26 06:51:49 51°13.602 2°56.06 102.5 3.5 279 -999
2007-03-26 06:52:49 51°13.625 2°55.944 123.3 4.8 299 -999
2007-03-26 06:53:49 51°13.679 2°55.839 139.8 5.7 315 -999
2007-03-26 06:54:49 51°13.741 2°55.743 133.8 3.4 314 -999
2007-03-26 06:55:49 51°13.765 2°55.708 96.8 0.6 43 12.8
2007-03-26 06:56:49 51°13.761 2°55.672 65.3 0.9 254 -999
2007-03-26 06:57:47 51°13.792 2°55.675 359.2 3.7 347 4.8
2007-03-26 06:58:46 51°13.878 2°55.61 336.9 7.3 333 13
2007-03-26 06:59:46 51°13.998 2°55.516 339.6 8.3 334 13.1
2007-03-26 07:00:46 51°14.136 2°55.416 340.2 10.3 335 13
2007-03-26 07:01:48 51°14.286 2°55.223 318.4 11.7 311 13
2007-03-26 07:02:46 51°14.419 2°54.999 323.5 12.7 321 12.4
2007-03-26 07:03:46 51°14.621 2°54.86 343.8 13.6 346 11.2
2007-03-26 07:04:46 51°14.846 2°54.819 352.1 13.6 350 11
2007-03-26 07:05:46 51°15.07 2°54.75 350.1 13.7 349 10.3
2007-03-26 07:06:46 51°15.293 2°54.675 349.1 13.6 346 10.5
2007-03-26 07:07:46 51°15.515 2°54.596 350.7 13.7 348 11.1
2007-03-26 07:08:46 51°15.738 2°54.525 352 13.7 350 11.8
2007-03-26 07:09:46 51°15.942 2°54.466 352.3 10.1 351 12.5
2007-03-26 07:10:46 51°16.077 2°54.437 352 6.9 352 13
2007-03-26 07:11:46 51°16.168 2°54.414 346.9 4.5 346 13
2007-03-26 07:12:46 51°16.215 2°54.366 312.9 2.9 319 13
2007-03-26 07:13:46 51°16.235 2°54.349 333.5 0.3 358 13
2007-03-26 07:14:46 51°16.24 2°54.348 332.2 0.4 353 13
2007-03-26 07:15:46 51°16.245 2°54.348 327 0.3 350 13
2007-03-26 07:16:46 51°16.25 2°54.346 325.5 0.3 -999 12.9
2007-03-26 07:17:46 51°16.254 2°54.344 326.3 0.3 359 13
2007-03-26 07:18:46 51°16.26 2°54.342 327.3 0.3 357 13
2007-03-26 07:19:46 51°16.265 2°54.34 330.8 0.3 2 12.9
2007-03-26 07:20:46 51°16.27 2°54.337 332.5 0.3 356 12.9
2007-03-26 07:21:46 51°16.275 2°54.336 333.1 0.3 341 12.9
2007-03-26 07:22:46 51°16.279 2°54.334 334.2 0.3 342 12.8
2007-03-26 07:23:46 51°16.283 2°54.331 333.7 0.2 331 13.1
2007-03-26 07:24:46 51°16.316 2°54.301 329 5.3 327 13
2007-03-26 07:25:46 51°16.413 2°54.102 303.7 11.9 303 12.8
2007-03-26 07:26:46 51°16.528 2°53.809 303.6 13.5 302 13.1
2007-03-26 07:27:46 51°16.649 2°53.506 303.5 13.5 301 13
2007-03-26 07:28:46 51°16.772 2°53.203 303.3 13.6 303 12.7
2007-03-26 07:29:46 51°16.917 2°52.926 311 13.6 309 10
2007-03-26 07:30:46 51°17.07 2°52.652 314.1 13.9 314 11.2
2007-03-26 07:31:46 51°17.241 2°52.406 322.5 13.9 321 11.6
2007-03-26 07:32:46 51°17.422 2°52.174 322.4 13.8 321 11.9
2007-03-26 07:33:46 51°17.602 2°51.943 322.5 13.7 321 11.8
2007-03-26 07:34:46 51°17.783 2°51.714 322.5 13.9 322 11.5
2007-03-26 07:35:46 51°17.963 2°51.483 321.5 13.8 320 12.2
2007-03-26 07:36:46 51°18.137 2°51.255 322.4 12.2 321 13.6
2007-03-26 07:37:46 51°18.264 2°51.111 329.5 8.2 328 14.6
2007-03-26 07:38:46 51°18.367 2°51.032 347.6 6 347 14.9
2007-03-26 07:39:46 51°18.446 2°51.023 1.8 4.1 357 15.1
2007-03-26 07:40:46 51°18.491 2°51.022 14.5 1.4 356 15.3
2007-03-26 07:41:46 51°18.499 2°51.014 7.5 0.4 298 15.4
2007-03-26 07:42:46 51°18.501 2°51.007 344.7 0.3 318 15.2
2007-03-26 07:43:46 51°18.503 2°51.003 323.9 0.2 293 15.4
2007-03-26 07:44:46 51°18.505 2°50.999 309.6 0.2 327 15.4
2007-03-26 07:45:46 51°18.508 2°50.994 305.7 0.4 300 15.3
2007-03-26 07:46:46 51°18.512 2°50.986 307.2 0.5 288 15.4
2007-03-26 07:47:46 51°18.516 2°50.975 312.8 0.5 313 15.3
2007-03-26 07:48:46 51°18.522 2°50.964 320 0.6 323 15.3
2007-03-26 07:49:46 51°18.528 2°50.953 327.7 0.4 332 15.3
2007-03-26 07:50:46 51°18.534 2°50.941 331.7 0.5 315 15.5
2007-03-26 07:51:46 51°18.54 2°50.929 333.2 0.6 310 15.6
2007-03-26 07:52:46 51°18.545 2°50.918 331.1 0.5 296 15.5
2007-03-26 07:53:46 51°18.572 2°50.875 315.9 4.9 319 15.6
2007-03-26 07:54:46 51°18.698 2°50.875 26.6 9.2 25 15.9
2007-03-26 07:55:46 51°18.868 2°51.04 36.5 13.7 31 16
2007-03-26 07:56:46 51°19.053 2°51.256 45.5 13.8 42 16.1
2007-03-26 07:57:46 51°19.215 2°51.515 52.2 13.7 47 16.4
2007-03-26 07:58:46 51°19.346 2°51.81 69.7 13.6 67 16.6
2007-03-26 07:59:46 51°19.41 2°52.154 81 13.4 77 16.5
2007-03-26 08:00:46 51°19.471 2°52.497 80.3 13.5 74 16.3
2007-03-26 08:01:46 51°19.536 2°52.839 79.1 13.4 74 15.9
2007-03-26 08:02:46 51°19.602 2°53.182 78.6 13.4 72 15.4
2007-03-26 08:03:46 51°19.669 2°53.523 78.5 13.5 72 14.9
2007-03-26 08:04:46 51°19.734 2°53.865 78.8 13.4 73 14.5
2007-03-26 08:05:46 51°19.801 2°54.207 78.4 13.4 73 14.1
2007-03-26 08:06:46 51°19.868 2°54.551 78.5 13.6 74 14.3
2007-03-26 08:07:46 51°19.935 2°54.893 78.3 13.5 72 14
2007-03-26 08:08:46 51°20.003 2°55.234 78.5 13.5 73 13.8
2007-03-26 08:09:46 51°20.07 2°55.575 78.1 13.6 73 13.9
2007-03-26 08:10:46 51°20.139 2°55.917 78.6 13.6 71 13.5
2007-03-26 08:11:46 51°20.206 2°56.26 78.9 13.5 71 13.3
2007-03-26 08:12:46 51°20.273 2°56.604 78 13.6 72 13.1
2007-03-26 08:13:46 51°20.342 2°56.948 78.3 13.6 72 13.2
2007-03-26 08:14:46 51°20.41 2°57.291 78.5 13.5 73 12.8
2007-03-26 08:15:45 51°20.477 2°57.626 77.6 13.4 73 12.7
2007-03-26 08:16:46 51°20.544 2°57.97 78.1 13.3 73 12.6
2007-03-26 08:17:46 51°20.61 2°58.305 78.3 13.1 73 12.5
2007-03-26 08:18:46 51°20.666 2°58.642 86.9 13.1 85 12.4
2007-03-26 08:19:46 51°20.678 2°58.99 93 13.1 89 12.1
2007-03-26 08:20:46 51°20.708 2°59.337 85.9 13.2 79 12
2007-03-26 08:21:46 51°20.747 2°59.684 85.6 13.3 79 12
2007-03-26 08:22:46 51°20.787 3°0.029 85.1 13.1 79 12
2007-03-26 08:23:46 51°20.826 3°0.374 85.2 13.2 81 11.8
2007-03-26 08:24:46 51°20.865 3°0.718 85.5 13.1 80 11.8
2007-03-26 08:25:46 51°20.904 3°1.061 85.3 13 80 11.7
2007-03-26 08:26:46 51°20.943 3°1.403 85.3 13 79 11.7
2007-03-26 08:27:46 51°20.988 3°1.743 82.1 13.1 76 11.5
2007-03-26 08:28:46 51°21.062 3°2.068 74.2 13.1 70 11.5
2007-03-26 08:29:46 51°21.112 3°2.406 85.1 13 80 11.6
2007-03-26 08:30:46 51°21.149 3°2.747 84.9 12.9 80 11.5
2007-03-26 08:31:46 51°21.179 3°3.087 91 12.9 85 11.5
2007-03-26 08:32:46 51°21.191 3°3.43 91.4 12.9 88 11.4
2007-03-26 08:33:46 51°21.204 3°3.772 92.1 13 88 11.2
2007-03-26 08:34:46 51°21.23 3°4.112 82.1 12.9 74 11.1
2007-03-26 08:35:46 51°21.286 3°4.442 79.6 13 74 11.1
2007-03-26 08:36:46 51°21.344 3°4.773 79.8 12.9 74 11.2
2007-03-26 08:37:46 51°21.401 3°5.104 80.5 12.9 75 11.1
2007-03-26 08:38:46 51°21.457 3°5.436 79.9 12.9 76 11.2
2007-03-26 08:39:46 51°21.524 3°5.764 75 13 69 11.3
2007-03-26 08:40:46 51°21.601 3°6.087 74.4 12.9 70 11.4
2007-03-26 08:41:46 51°21.678 3°6.413 74.8 13 69 11.6
2007-03-26 08:42:46 51°21.753 3°6.738 75.6 13 70 11.8
2007-03-26 08:43:46 51°21.826 3°7.062 75.4 13 69 11.9
2007-03-26 08:44:46 51°21.9 3°7.386 75.2 13 70 12.1
2007-03-26 08:45:46 51°21.974 3°7.71 75.3 13 71 12.4
2007-03-26 08:46:46 51°22.047 3°8.034 75.1 12.9 70 12.4
2007-03-26 08:47:46 51°22.107 3°8.362 84.9 12.9 83 12.6
2007-03-26 08:48:46 51°22.134 3°8.7 87.1 12.8 83 12.9
2007-03-26 08:49:46 51°22.161 3°9.038 87 12.8 83 13.1
2007-03-26 08:50:46 51°22.189 3°9.374 86.7 12.7 83 13.5
2007-03-26 08:51:46 51°22.217 3°9.709 86.5 12.6 83 13.9
2007-03-26 08:52:46 51°22.246 3°10.041 86.6 12.6 81 14.5
2007-03-26 08:53:46 51°22.279 3°10.368 87 12.4 81 15.5
2007-03-26 08:54:46 51°22.313 3°10.694 86.3 12.5 79 19.2
2007-03-26 08:55:46 51°22.343 3°11.025 86.6 12.7 84 16.5
2007-03-26 08:56:46 51°22.371 3°11.36 86.2 12.6 81 16.4
2007-03-26 08:57:46 51°22.4 3°11.689 85.6 12.5 81 16.1
2007-03-26 08:58:46 51°22.431 3°12.015 85.6 12.4 81 15.6
2007-03-26 08:59:46 51°22.461 3°12.342 86.1 12.4 81 14.9
2007-03-26 09:00:45 51°22.484 3°12.626 86.7 8.5 83 14.4
2007-03-26 09:01:46 51°22.508 3°12.816 81 6.3 75 13.9
2007-03-26 09:02:46 51°22.539 3°12.969 78.2 5.9 74 13.4
2007-03-26 09:03:46 51°22.566 3°13.106 79.4 4.8 72 12.9
2007-03-26 09:04:46 51°22.587 3°13.204 75.4 2.9 67 12.8
2007-03-26 09:05:46 51°22.594 3°13.227 85.6 0.1 357 12.7
2007-03-26 09:06:46 51°22.594 3°13.221 87.1 0.4 268 12.7
2007-03-26 09:07:46 51°22.593 3°13.208 92 0.7 259 12.9
2007-03-26 09:08:46 51°22.589 3°13.184 100.6 1.1 257 12.8
2007-03-26 09:09:46 51°22.584 3°13.151 116.6 1.4 258 12.9
2007-03-26 09:10:46 51°22.58 3°13.114 137.5 1.4 260 13
2007-03-26 09:11:46 51°22.575 3°13.075 155.2 1.5 259 13.1
2007-03-26 09:12:46 51°22.56 3°13.04 176.5 2.5 207 13.1
2007-03-26 09:13:46 51°22.516 3°12.927 265.7 6.8 271 13.4
2007-03-26 09:14:46 51°22.589 3°12.756 315 10 308 13.6
2007-03-26 09:15:46 51°22.744 3°12.526 336.2 13.6 330 13.5
2007-03-26 09:16:46 51°22.953 3°12.388 348.7 13.6 339 12.5
2007-03-26 09:17:46 51°23.172 3°12.301 356.7 13.5 347 12
2007-03-26 09:18:46 51°23.392 3°12.218 355.5 13.5 347 12.1
2007-03-26 09:19:46 51°23.612 3°12.134 354.9 13.6 347 11.9
2007-03-26 09:20:46 51°23.833 3°12.049 354.9 13.7 347 12.7
2007-03-26 09:21:46 51°24.055 3°11.964 354.8 13.7 346 15.8
2007-03-26 09:22:46 51°24.277 3°11.878 354.6 13.7 347 18.8
2007-03-26 09:23:46 51°24.498 3°11.794 355.1 13.6 347 17.1
2007-03-26 09:24:46 51°24.718 3°11.706 352.2 13.7 344 12.7
2007-03-26 09:25:46 51°24.937 3°11.605 351.7 13.7 344 11.3
2007-03-26 09:26:46 51°25.15 3°11.468 341.9 13.8 336 10.2
2007-03-26 09:27:46 51°25.362 3°11.317 342.3 14 335 9.8
2007-03-26 09:28:46 51°25.548 3°11.097 321.5 14 316 8.6
2007-03-26 09:29:46 51°25.69 3°10.811 305.9 13.7 301 7.5
2007-03-26 09:30:46 51°25.805 3°10.492 303.9 13.9 302 7.7
2007-03-26 09:31:46 51°25.934 3°10.182 305.2 14 299 7.7
2007-03-26 09:32:46 51°26.035 3°9.844 299.8 14.2 298 8.4
2007-03-26 09:33:46 51°26.144 3°9.508 298.3 14.2 296 8.6
2007-03-26 09:34:46 51°26.251 3°9.169 298.8 14.3 297 9.2
2007-03-26 09:35:46 51°26.349 3°8.873 299.9 10.3 297 9.9
2007-03-26 09:36:46 51°26.41 3°8.651 292.2 8.6 290 10.9
2007-03-26 09:37:46 51°26.408 3°8.473 253.8 5.3 256 10.8
2007-03-26 09:38:46 51°26.391 3°8.366 239.7 3.2 252 10.8
2007-03-26 09:39:46 51°26.38 3°8.309 230.8 2.1 256 10.6
2007-03-26 09:40:46 51°26.374 3°8.242 262 3.2 276 10.2
2007-03-26 09:41:46 51°26.4 3°8.161 317.9 3.6 315 10.5
2007-03-26 09:42:46 51°26.451 3°8.121 3.6 3.2 349 10.5
2007-03-26 09:43:46 51°26.499 3°8.133 47.7 2.8 28 10.4
2007-03-26 09:44:46 51°26.511 3°8.198 115.6 2.4 111 10.8
2007-03-26 09:45:46 51°26.479 3°8.24 139 2.5 136 10.6
2007-03-26 09:46:46 51°26.465 3°8.303 107.8 2.8 101 10.6
2007-03-26 09:47:46 51°26.446 3°8.375 131.7 3 133 10.7
2007-03-26 09:48:46 51°26.417 3°8.398 149.5 0.7 181 10.6
2007-03-26 09:49:46 51°26.409 3°8.396 135.6 0.2 202 10.8
2007-03-26 09:50:46 51°26.406 3°8.389 133.3 0.4 249 10.7
2007-03-26 09:51:46 51°26.406 3°8.378 131.2 0.4 269 10.8
2007-03-26 09:52:46 51°26.407 3°8.363 131 0.7 271 10.7
2007-03-26 09:53:46 51°26.408 3°8.346 134.5 0.8 266 10.5
2007-03-26 09:54:46 51°26.409 3°8.328 136.9 0.8 272 10.5
2007-03-26 09:55:46 51°26.403 3°8.318 148.3 1.2 176 10.4
2007-03-26 09:56:46 51°26.367 3°8.296 208.7 3.5 226 10.3
2007-03-26 09:57:46 51°26.362 3°8.189 288.1 4.9 293 10.2
2007-03-26 09:58:46 51°26.437 3°7.989 304.1 12.6 301 10
2007-03-26 09:59:46 51°26.553 3°7.678 303.7 13.8 299 9.8
2007-03-26 10:00:46 51°26.671 3°7.356 304 14.1 301 10.8
2007-03-26 10:01:46 51°26.79 3°7.033 304.8 14 301 11.3
2007-03-26 10:02:46 51°26.911 3°6.714 305 13.9 302 11.8
2007-03-26 10:03:46 51°27.034 3°6.397 305.5 14.1 302 12.3
2007-03-26 10:04:46 51°27.155 3°6.079 304.3 14 301 12.8
2007-03-26 10:05:46 51°27.276 3°5.761 305.2 14.1 302 13.4
2007-03-26 10:06:46 51°27.398 3°5.444 305.2 13.9 301 14.2
2007-03-26 10:07:46 51°27.518 3°5.127 306.2 13.9 301 14.2
2007-03-26 10:08:46 51°27.64 3°4.811 305.4 13.9 301 13.5
2007-03-26 10:09:46 51°27.76 3°4.496 305.8 13.9 301 14.8
2007-03-26 10:10:46 51°27.88 3°4.178 305.1 14 301 16.6
2007-03-26 10:11:46 51°28.01 3°3.87 310.1 13.7 306 18.7
2007-03-26 10:12:46 51°28.114 3°3.675 330.6 7.3 321 20.4
2007-03-26 10:13:46 51°28.198 3°3.57 331 5.8 322 21.5
2007-03-26 10:14:46 51°28.257 3°3.513 358.3 2.6 333 22.2
2007-03-26 10:15:46 51°28.27 3°3.485 21.3 1.2 285 22.1
2007-03-26 10:16:46 51°28.274 3°3.453 10.7 1.3 276 22.5
2007-03-26 10:17:46 51°28.275 3°3.418 352.7 1.5 265 22.3
2007-03-26 10:18:46 51°28.272 3°3.384 338.3 1.2 262 22.4
2007-03-26 10:19:46 51°28.267 3°3.353 328.9 1.2 254 22.6
2007-03-26 10:20:46 51°28.261 3°3.322 324.6 1.1 253 22.7
2007-03-26 10:21:46 51°28.255 3°3.293 323.2 1 250 22.4
2007-03-26 10:22:46 51°28.252 3°3.26 314.1 2.1 284 22.6
2007-03-26 10:23:46 51°28.272 3°3.129 281.8 8 271 23
2007-03-26 10:24:46 51°28.251 3°2.827 265.6 13.7 258 23.1
2007-03-26 10:25:46 51°28.217 3°2.46 265.6 14 261 23.5
2007-03-26 10:26:46 51°28.182 3°2.09 264.9 14 265 23.5
2007-03-26 10:27:46 51°28.147 3°1.718 267 14.2 263 23.5
2007-03-26 10:28:46 51°28.117 3°1.349 266.9 14.1 259 22.8
2007-03-26 10:29:46 51°28.087 3°0.977 264.6 14 265 21.6
2007-03-26 10:30:46 51°28.038 3°0.615 255.6 14.1 255 20.9
2007-03-26 10:31:46 51°27.965 3°0.261 255.6 14 247 21.1
2007-03-26 10:32:46 51°27.898 2°59.907 256.9 13.7 253 17.6
2007-03-26 10:33:46 51°27.828 2°59.553 254.7 14 251 18.9
2007-03-26 10:34:46 51°27.76 2°59.198 254.8 14 255 17.2
2007-03-26 10:35:46 51°27.695 2°58.845 254.6 13.8 251 18.7
2007-03-26 10:36:46 51°27.627 2°58.493 253.4 14 255 19.1
2007-03-26 10:37:46 51°27.559 2°58.141 254.8 13.9 254 19.8
2007-03-26 10:38:46 51°27.493 2°57.787 255.8 13.7 254 23
2007-03-26 10:39:46 51°27.427 2°57.436 254.7 13.8 250 25.6
2007-03-26 10:40:46 51°27.361 2°57.089 254.9 13.4 252 26
2007-03-26 10:41:46 51°27.292 2°56.741 254.7 13.9 252 18.3
2007-03-26 10:42:46 51°27.224 2°56.392 254.7 13.8 250 25.7
2007-03-26 10:43:46 51°27.157 2°56.04 256.3 14.1 256 28
2007-03-26 10:44:46 51°27.088 2°55.687 256 13.7 253 29.8
2007-03-26 10:45:46 51°27.018 2°55.341 255 13.7 248 27.8
2007-03-26 10:46:46 51°26.947 2°54.996 254.7 13.9 254 26.1
2007-03-26 10:47:46 51°26.875 2°54.647 253.3 14 255 26.2
2007-03-26 10:48:46 51°26.806 2°54.291 256.9 13.9 250 25
2007-03-26 10:49:46 51°26.733 2°53.939 253.3 14.2 249 30.6
2007-03-26 10:50:46 51°26.667 2°53.588 257.1 13.6 253 31.1
2007-03-26 10:51:46 51°26.597 2°53.242 255.9 13.5 252 30.7
2007-03-26 10:52:46 51°26.528 2°52.894 257.6 13.8 253 28
2007-03-26 10:53:46 51°26.459 2°52.546 253 13.7 253 27.9
2007-03-26 10:54:46 51°26.41 2°52.187 259.4 13.9 263 26.6
2007-03-26 10:55:46 51°26.366 2°51.825 263.6 13.7 259 26.7
2007-03-26 10:56:46 51°26.321 2°51.463 261.2 13.9 258 26
2007-03-26 10:57:46 51°26.276 2°51.099 261.7 13.9 261 23
2007-03-26 10:58:46 51°26.23 2°50.733 262.1 14.1 263 23.2
2007-03-26 10:59:46 51°26.187 2°50.372 260.4 13.6 256 22.4
2007-03-26 11:00:46 51°26.141 2°50.011 261.5 14.1 259 22.9
2007-03-26 11:01:46 51°26.106 2°49.641 263.3 13.9 264 22.7
2007-03-26 11:02:46 51°26.075 2°49.273 264.7 14.1 261 22.9
2007-03-26 11:03:46 51°26.048 2°48.925 264.9 11.4 260 22.8
2007-03-26 11:04:46 51°26.015 2°48.709 271.8 6.6 269 23.2
2007-03-26 11:05:46 51°26.014 2°48.568 274 3.9 268 23.3
2007-03-26 11:06:46 51°26.015 2°48.511 313.6 0.8 211 22.9
2007-03-26 11:07:46 51°26.004 2°48.492 312.3 1 228 23.1
2007-03-26 11:08:46 51°25.994 2°48.473 307.6 0.8 231 23.3
2007-03-26 11:09:46 51°25.983 2°48.452 306.2 1.2 227 23
2007-03-26 11:10:46 51°25.972 2°48.431 305.3 1.1 228 23.1
2007-03-26 11:11:46 51°25.961 2°48.408 308.3 1.1 235 23
2007-03-26 11:12:46 51°25.948 2°48.386 305.7 1.2 229 23
2007-03-26 11:13:46 51°25.938 2°48.362 306.7 1.2 250 23.1
2007-03-26 11:14:46 51°25.929 2°48.291 256.7 4.3 248 23.1
2007-03-26 11:15:46 51°25.847 2°48.197 215.1 9.4 216 23.1
2007-03-26 11:16:46 51°25.706 2°47.946 231.5 14.3 230 23
2007-03-26 11:17:46 51°25.557 2°47.668 229.6 13.6 225 25.4
2007-03-26 11:18:46 51°25.409 2°47.386 231 14.1 228 25.6
2007-03-26 11:19:46 51°25.258 2°47.107 230.6 13.7 227 24
2007-03-26 11:20:46 51°25.102 2°46.826 233.6 13.8 231 24.2
2007-03-26 11:21:46 51°24.949 2°46.545 232.5 13.8 229 24.1
2007-03-26 11:22:46 51°24.804 2°46.256 238.6 13.8 242 24.7
2007-03-26 11:23:46 51°24.688 2°45.932 241 14.4 242 23.9
2007-03-26 11:24:46 51°24.565 2°45.612 242 14 238 24.7
2007-03-26 11:25:46 51°24.435 2°45.295 239.5 14.3 235 25.2
2007-03-26 11:26:46 51°24.31 2°44.973 241.2 14.2 239 24.9
2007-03-26 11:27:46 51°24.174 2°44.666 235.9 14.3 234 23.9
2007-03-26 11:28:46 51°24.036 2°44.357 235.7 14.2 234 25.8
2007-03-26 11:29:46 51°23.896 2°44.051 235.5 14.3 229 24.5
2007-03-26 11:30:46 51°23.757 2°43.741 237.9 14.3 234 25.5
2007-03-26 11:31:46 51°23.615 2°43.438 233.7 14.1 233 26.4
2007-03-26 11:32:46 51°23.475 2°43.128 236.3 14.7 235 25.9
2007-03-26 11:33:46 51°23.339 2°42.814 236.1 14.5 235 25.7
2007-03-26 11:34:46 51°23.196 2°42.503 234.3 14.8 233 25.8
2007-03-26 11:35:46 51°23.057 2°42.195 234.4 14.4 229 26.8
2007-03-26 11:36:46 51°22.917 2°41.887 235.5 14.5 233 26.6
2007-03-26 11:37:46 51°22.777 2°41.584 234.7 14.3 232 27.3
2007-03-26 11:38:46 51°22.639 2°41.278 238.7 14.4 237 28.8
2007-03-26 11:39:46 51°22.5 2°40.973 238.5 13.9 235 27.9
2007-03-26 11:40:46 51°22.361 2°40.669 236.6 14.8 232 27.7
2007-03-26 11:41:46 51°22.219 2°40.371 234.9 14.3 233 28
2007-03-26 11:42:46 51°22.075 2°40.067 235.8 14.4 232 27.5
2007-03-26 11:43:46 51°21.935 2°39.759 236 14.4 239 27.2
2007-03-26 11:44:46 51°21.795 2°39.453 239.2 14 233 26.3
2007-03-26 11:45:46 51°21.653 2°39.149 237.2 14.1 235 26.4
2007-03-26 11:46:46 51°21.518 2°38.838 235.3 14.3 232 25
2007-03-26 11:47:46 51°21.376 2°38.529 235.4 14.4 232 25.5
2007-03-26 11:48:46 51°21.238 2°38.219 237.6 14.4 239 25.1
2007-03-26 11:49:46 51°21.097 2°37.913 235.6 14.1 233 23.6
2007-03-26 11:50:46 51°20.958 2°37.601 237 14.2 236 24.1
2007-03-26 11:51:46 51°20.819 2°37.293 235.9 14.2 236 22.1
2007-03-26 11:52:46 51°20.671 2°36.997 224.4 14.3 223 21.8
2007-03-26 11:53:46 51°20.462 2°36.849 194.4 14.2 195 21.7
2007-03-26 11:54:46 51°20.234 2°36.804 182 14.1 184 21.4
2007-03-26 11:55:46 51°20.013 2°36.715 209.9 14 213 21.1
2007-03-26 11:56:46 51°19.907 2°36.393 259.4 14.2 258 19.8
2007-03-26 11:57:46 51°19.879 2°36.015 274.7 14.2 268 20
2007-03-26 11:58:46 51°19.876 2°35.631 276.2 14.4 273 18.2
2007-03-26 11:59:46 51°19.876 2°35.244 274.2 14.6 270 15.5
2007-03-26 12:00:46 51°19.878 2°34.856 274.4 14.8 268 15
2007-03-26 12:01:46 51°19.881 2°34.465 274.9 14.9 273 26.9
2007-03-26 12:02:46 51°19.879 2°34.075 273.9 14.7 268 29.6
2007-03-26 12:03:46 51°19.878 2°33.684 276.8 14.7 266 30.1
2007-03-26 12:04:46 51°19.876 2°33.296 274.6 14.8 267 30.3
2007-03-26 12:05:46 51°19.872 2°32.906 276.9 14.8 266 30.2
2007-03-26 12:06:46 51°19.879 2°32.519 277.4 14.4 268 30.1
2007-03-26 12:07:46 51°19.89 2°32.135 281.3 14.6 271 29.6
2007-03-26 12:08:46 51°19.94 2°31.761 291.7 14.4 284 29.4
2007-03-26 12:09:46 51°20.013 2°31.399 300.3 14.3 291 26.2
2007-03-26 12:10:46 51°20.107 2°31.053 301.6 14.2 294 19.9
2007-03-26 12:11:46 51°20.192 2°30.699 291.2 14.3 285 14.2
2007-03-26 12:12:46 51°20.164 2°30.352 240.1 10.9 239 13.1
2007-03-26 12:13:46 51°20.089 2°30.163 256.5 7.5 256 11.8
2007-03-26 12:14:46 51°20.053 2°29.984 248 6.5 251 13.4
2007-03-26 12:15:46 51°20.036 2°29.869 265.7 2.8 261 14.3
2007-03-26 12:16:48 51°20.026 2°29.843 279.5 0.6 177 4.8
2007-03-26 12:17:47 51°20.016 2°29.832 270 0.9 234 16.5
2007-03-26 12:18:46 51°20.008 2°29.807 266.6 1.2 245 17.6
2007-03-26 12:19:46 51°19.999 2°29.774 269.2 1.5 245 20.6
2007-03-26 12:20:46 51°19.988 2°29.735 276.3 1.7 245 23.7
2007-03-26 12:21:46 51°19.979 2°29.692 284.6 1.8 254 24.1
2007-03-26 12:22:46 51°19.97 2°29.646 297.3 1.9 248 26
2007-03-26 12:23:46 51°19.968 2°29.582 292.2 3.5 271 29.5
2007-03-26 12:24:46 51°19.958 2°29.477 246.6 4.3 246 29.6
2007-03-26 12:25:46 51°19.908 2°29.411 179.6 3.5 198 30.8
2007-03-26 12:26:46 51°19.865 2°29.438 108.1 2.8 117 29.1
2007-03-26 12:27:46 51°19.822 2°29.583 118.3 10.4 123 22.6
2007-03-26 12:28:46 51°19.691 2°29.812 131 11.8 133 12.2
2007-03-26 12:29:46 51°19.575 2°30.062 121.8 11.9 122 13.2
2007-03-26 12:30:46 51°19.468 2°30.325 120 11.9 123 16.2
2007-03-26 12:31:46 51°19.354 2°30.593 121.6 12.4 124 20.5
2007-03-26 12:32:46 51°19.226 2°30.855 125.3 12.6 127 28.2
2007-03-26 12:33:46 51°19.093 2°31.115 126.4 12.7 130 29.5
2007-03-26 12:34:46 51°18.96 2°31.377 125.4 12.7 130 29.3
2007-03-26 12:35:46 51°18.828 2°31.64 123.7 12.5 131 30.8
2007-03-26 12:36:46 51°18.699 2°31.906 124.5 12.5 126 30
2007-03-26 12:37:46 51°18.569 2°32.17 124.7 12.6 130 28.8
2007-03-26 12:38:46 51°18.443 2°32.437 124 12.4 126 26.4
2007-03-26 12:39:46 51°18.316 2°32.7 124.8 12.4 128 24.5
2007-03-26 12:40:46 51°18.204 2°32.973 121.5 12.3 124 21.4
2007-03-26 12:41:46 51°18.093 2°33.247 121.7 12.2 124 20.7
2007-03-26 12:42:46 51°17.983 2°33.521 121.2 12.3 120 25.1
2007-03-26 12:43:46 51°17.871 2°33.792 121.1 12.3 124 27.1
2007-03-26 12:44:46 51°17.761 2°34.064 121.5 12.1 121 27.6
2007-03-26 12:45:46 51°17.652 2°34.335 121 12.1 119 23.7
2007-03-26 12:46:46 51°17.542 2°34.609 122.6 12.3 126 15.4
2007-03-26 12:47:46 51°17.424 2°34.866 124.2 12.4 123 13.4
2007-03-26 12:48:46 51°17.305 2°35.127 126.8 12 130 10.1
2007-03-26 12:49:46 51°17.181 2°35.388 125.8 12.6 130 11.3
2007-03-26 12:50:46 51°17.055 2°35.65 123.3 12.3 129 16
2007-03-26 12:51:46 51°16.927 2°35.912 124.1 12.6 127 23.6
2007-03-26 12:52:46 51°16.801 2°36.175 124.6 12.6 130 26
2007-03-26 12:53:46 51°16.702 2°36.454 111.3 10.9 111 25.7
2007-03-26 12:54:46 51°16.665 2°36.622 102.3 4.5 111 25.8
2007-03-26 12:55:46 51°16.636 2°36.7 105.8 2.6 124 25.7
2007-03-26 12:56:46 51°16.62 2°36.741 88.1 1.2 117 25.8
2007-03-26 12:57:46 51°16.614 2°36.752 76.3 0.4 188 25.8
2007-03-26 12:58:46 51°16.603 2°36.742 78.1 0.9 223 26
2007-03-26 12:59:46 51°16.59 2°36.723 79.7 1.2 228 26
2007-03-26 13:00:46 51°16.575 2°36.696 84 1.5 228 26.2
2007-03-26 13:01:46 51°16.559 2°36.665 94.3 1.6 234 25.9
2007-03-26 13:02:46 51°16.542 2°36.63 106.7 1.7 232 26.1
2007-03-26 13:03:46 51°16.526 2°36.594 121.3 1.8 234 26
2007-03-26 13:04:46 51°16.502 2°36.59 107 2.3 131 26.2
2007-03-26 13:05:46 51°16.431 2°36.706 142.9 11.3 149 26.3
2007-03-26 13:06:46 51°16.258 2°36.899 139.3 13 143 26.1
2007-03-26 13:07:46 51°16.085 2°37.113 141.2 13 140 18.7
2007-03-26 13:08:46 51°15.902 2°37.306 146.7 13.3 146 10.6
2007-03-26 13:09:46 51°15.717 2°37.494 144.7 13.4 146 10.6
2007-03-26 13:10:46 51°15.525 2°37.665 150.4 13.1 155 9.5
2007-03-26 13:11:46 51°15.324 2°37.823 149.6 13.4 153 10.1
2007-03-26 13:12:46 51°15.122 2°37.976 151.3 13.9 152 10.4
2007-03-26 13:13:46 51°14.919 2°38.138 144.4 13.6 151 13.7
2007-03-26 13:14:46 51°14.727 2°38.322 145.1 13.3 149 15.7
2007-03-26 13:15:46 51°14.533 2°38.501 148.8 13.5 150 16.4
2007-03-26 13:16:46 51°14.331 2°38.649 156.5 13.3 161 17
2007-03-26 13:17:46 51°14.113 2°38.743 166.5 13.8 168 12.4
2007-03-26 13:18:46 51°13.883 2°38.78 173.1 14.1 183 12.6
2007-03-26 13:19:46 51°13.65 2°38.736 194.6 14.4 200 13.8
2007-03-26 13:20:46 51°13.434 2°38.56 206.4 14.5 204 13.8
2007-03-26 13:21:46 51°13.217 2°38.379 206.9 14.8 208 13.5
2007-03-26 13:22:46 51°13 2°38.202 206 14.5 208 13.1
2007-03-26 13:23:46 51°12.779 2°38.034 203.9 14.5 205 12.3
2007-03-26 13:24:46 51°12.558 2°37.872 203.9 14.5 202 12
2007-03-26 13:25:46 51°12.337 2°37.71 203.3 14.3 201 11.9
2007-03-26 13:26:46 51°12.116 2°37.554 202.8 14.7 203 12
2007-03-26 13:27:46 51°11.893 2°37.393 204.8 14.5 204 12.1
2007-03-26 13:28:46 51°11.673 2°37.221 209 14.8 208 12.3
2007-03-26 13:29:46 51°11.463 2°37.021 212 14.4 212 12.6
2007-03-26 13:30:46 51°11.252 2°36.822 211.3 14.8 211 12.2
2007-03-26 13:31:46 51°11.043 2°36.628 210 14.6 211 11.7
2007-03-26 13:32:46 51°10.833 2°36.433 210.6 14.8 210 11.2
2007-03-26 13:33:46 51°10.626 2°36.235 212.3 14.3 211 10.3
2007-03-26 13:34:46 51°10.418 2°36.042 210.7 14.3 210 10.2
2007-03-26 13:35:46 51°10.212 2°35.852 212 14.2 209 10.1
2007-03-26 13:36:46 51°9.988 2°35.796 168.7 13.3 170 16.9
2007-03-26 13:37:46 51°9.84 2°36.007 114.8 11.9 112 17.8
2007-03-26 13:38:46 51°9.841 2°36.308 75.4 11.6 70 17.2
2007-03-26 13:39:46 51°9.935 2°36.58 63.9 11.7 59 17.4
2007-03-26 13:40:46 51°10.023 2°36.86 71.8 11.9 69 17.3
2007-03-26 13:41:46 51°10.086 2°37.158 75.4 11.8 72 17.3
2007-03-26 13:42:46 51°10.156 2°37.451 70.4 11.9 66 17.3
2007-03-26 13:43:46 51°10.225 2°37.746 75.4 11.9 73 17.2
2007-03-26 13:44:46 51°10.285 2°38.047 75.2 11.9 72 16.5
2007-03-26 13:45:46 51°10.346 2°38.346 75 11.9 71 15.9
2007-03-26 13:46:46 51°10.408 2°38.646 75.1 11.9 71 16.1
2007-03-26 13:47:46 51°10.47 2°38.947 75.9 12 73 15.7
2007-03-26 13:48:46 51°10.533 2°39.25 76.3 12.1 71 15.2
2007-03-26 13:49:46 51°10.596 2°39.55 75.2 12 72 14.5
2007-03-26 13:50:46 51°10.66 2°39.851 75.5 12 71 14.2
2007-03-26 13:51:46 51°10.723 2°40.153 75.6 12.1 72 13.3
2007-03-26 13:52:46 51°10.787 2°40.455 75.3 12 72 12.8
2007-03-26 13:53:46 51°10.851 2°40.757 75.1 12 71 12.5
2007-03-26 13:54:46 51°10.915 2°41.06 75.6 12.2 70 12.1
2007-03-26 13:55:46 51°10.98 2°41.367 75.9 12.3 72 11.9
2007-03-26 13:56:46 51°11.045 2°41.668 75.4 10.6 71 11.8
2007-03-26 13:57:46 51°11.079 2°41.856 76.7 5.7 74 11.9
2007-03-26 13:58:46 51°11.1 2°41.97 75.9 3.4 73 12.1
2007-03-26 13:59:46 51°11.109 2°42.019 66 0.4 71 12.2
2007-03-26 14:00:46 51°11.11 2°42.02 53.6 0.1 259 12.1
2007-03-26 14:01:46 51°11.108 2°42.012 51.5 0.5 248 12.1
2007-03-26 14:02:46 51°11.102 2°41.998 52 0.7 233 12.1
2007-03-26 14:03:46 51°11.094 2°41.981 56.6 1 231 12.1
2007-03-26 14:04:46 51°11.082 2°41.961 65.4 1.1 223 12.2
2007-03-26 14:05:46 51°11.075 2°41.961 75.4 2.5 77 12
2007-03-26 14:06:46 51°11.119 2°42.166 77.6 11 74 12
2007-03-26 14:07:46 51°11.151 2°42.476 83.8 12.1 81 12.3
2007-03-26 14:08:46 51°11.186 2°42.792 82.9 12.2 78 12.2
2007-03-26 14:09:46 51°11.232 2°43.107 80.2 12.2 75 12.5
2007-03-26 14:10:46 51°11.28 2°43.421 79.9 12.1 77 12.4
2007-03-26 14:11:46 51°11.325 2°43.732 79.8 12.1 77 12.6
2007-03-26 14:12:46 51°11.371 2°44.043 80.5 12.1 78 12.7
2007-03-26 14:13:46 51°11.415 2°44.352 80.6 12 76 12.6
2007-03-26 14:14:46 51°11.46 2°44.66 80.6 12 77 12.7
2007-03-26 14:15:46 51°11.505 2°44.967 79.9 11.9 77 12.7
2007-03-26 14:16:46 51°11.55 2°45.274 79.9 11.9 76 12.7
2007-03-26 14:17:46 51°11.593 2°45.584 80.4 12 77 12.4
2007-03-26 14:18:46 51°11.64 2°45.894 78 12 72 12.6
2007-03-26 14:19:46 51°11.721 2°46.181 64.6 11.9 60 12.5
2007-03-26 14:20:46 51°11.808 2°46.465 70.7 11.9 69 12.6
2007-03-26 14:21:46 51°11.874 2°46.766 75.3 12 72 12.3
2007-03-26 14:22:46 51°11.934 2°47.07 75.4 12.1 72 12.1
2007-03-26 14:23:46 51°11.997 2°47.376 75.5 12.1 71 11.9
2007-03-26 14:24:46 51°12.069 2°47.678 72 12.2 68 11.5
2007-03-26 14:25:46 51°12.156 2°47.972 65.8 12.3 62 11.6
2007-03-26 14:26:46 51°12.257 2°48.255 63.8 12.2 60 11.6
2007-03-26 14:27:46 51°12.36 2°48.537 64 12.2 60 11.5
2007-03-26 14:28:46 51°12.461 2°48.821 64.5 12.3 59 11.6
2007-03-26 14:29:46 51°12.561 2°49.107 65 12.4 62 11.6
2007-03-26 14:30:46 51°12.656 2°49.397 66.4 12.4 61 11.6
2007-03-26 14:31:46 51°12.753 2°49.685 66.2 12.3 62 11.3
2007-03-26 14:32:46 51°12.851 2°49.97 63.8 12.4 60 11.3
2007-03-26 14:33:46 51°12.954 2°50.255 63.9 12.4 61 11.1
2007-03-26 14:34:46 51°13.056 2°50.541 64.2 12.3 59 11
2007-03-26 14:35:46 51°13.158 2°50.825 62.4 12.4 59 10.9
2007-03-26 14:36:46 51°13.273 2°51.098 60.4 12.4 57 10.9
2007-03-26 14:37:46 51°13.388 2°51.369 59.5 12.3 56 10.8
2007-03-26 14:38:45 51°13.5 2°51.638 61.7 12.4 58 10.9
2007-03-26 14:39:46 51°13.608 2°51.923 62.1 12.3 59 10.7
2007-03-26 14:40:45 51°13.715 2°52.196 62.4 12.4 58 10.5
2007-03-26 14:41:45 51°13.821 2°52.476 62.3 12.3 59 10.5
2007-03-26 14:42:45 51°13.929 2°52.756 62.7 12.3 59 10.4
2007-03-26 14:43:45 51°14.037 2°53.037 62.3 12.4 58 10.3
2007-03-26 14:44:46 51°14.152 2°53.317 58.9 12.5 53 10
2007-03-26 14:45:45 51°14.279 2°53.573 55.2 12.5 50 9.9
2007-03-26 14:46:46 51°14.424 2°53.821 49.6 12.6 44 9.9
2007-03-26 14:47:46 51°14.592 2°54.022 37.1 12.8 29 10.6
2007-03-26 14:48:47 51°14.801 2°54.09 9.2 12.6 2 9.8
2007-03-26 14:49:45 51°15.004 2°54.092 7.5 12.6 1 9.2
2007-03-26 14:50:46 51°15.218 2°54.103 8.1 12.8 2 9.4
2007-03-26 14:51:46 51°15.432 2°54.119 9.5 12.8 3 9.8
2007-03-26 14:52:46 51°15.646 2°54.135 9.2 12.9 2 10.4
2007-03-26 14:53:46 51°15.86 2°54.153 9.6 12.8 3 10.8
2007-03-26 14:54:45 51°16.049 2°54.168 11.6 8.7 6 11.2
2007-03-26 14:55:46 51°16.133 2°54.24 44.2 4.3 42 11.4
2007-03-26 14:56:46 51°16.187 2°54.31 37.5 4.8 33 11.4
2007-03-26 14:57:46 51°16.247 2°54.357 35.6 2 37 11.5
2007-03-26 14:58:46 51°16.251 2°54.372 70.6 0.5 113 11.6
2007-03-26 14:59:46 51°16.244 2°54.382 84.1 0.7 154 11.5
2007-03-26 15:00:46 51°16.233 2°54.389 91.4 0.8 167 11.5
2007-03-26 15:01:46 51°16.22 2°54.392 95.6 0.9 173 11.6
2007-03-26 15:02:46 51°16.207 2°54.393 95.4 0.7 180 11.5
2007-03-26 15:03:45 51°16.191 2°54.41 114.4 2.7 132 11.6
2007-03-26 15:04:46 51°16.102 2°54.444 175.8 9 176 11.4
2007-03-26 15:05:46 51°15.906 2°54.473 173.3 13.6 174 10.9
2007-03-26 15:06:46 51°15.681 2°54.508 175.7 13.7 176 10.2
2007-03-26 15:07:46 51°15.499 2°54.497 195.5 8.1 195 10.1
2007-03-26 15:08:46 51°15.403 2°54.458 182.3 4.8 181 9.8
2007-03-26 15:09:46 51°15.334 2°54.473 162.7 3.9 167 9.7
2007-03-26 15:10:46 51°15.27 2°54.502 160.6 4 166 9.8
2007-03-26 15:11:46 51°15.205 2°54.531 158.9 4.1 164 9.3
2007-03-26 15:12:45 51°15.141 2°54.563 158.4 4 161 9.1
2007-03-26 15:13:46 51°15.076 2°54.597 158.6 4.1 162 9.2
2007-03-26 15:14:46 51°15.013 2°54.634 157.9 4 160 9.3
2007-03-26 15:15:46 51°14.952 2°54.67 156.7 3.8 159 9.8
2007-03-26 15:16:45 51°14.894 2°54.709 156.7 3.9 157 9.8
2007-03-26 15:17:45 51°14.789 2°54.774 162.5 9.4 161 10
2007-03-26 15:18:46 51°14.631 2°54.878 158.3 10.5 156 9.9
2007-03-26 15:19:46 51°14.456 2°55.006 156.3 12.5 154 10.8
2007-03-26 15:20:46 51°14.292 2°55.206 136.6 12.6 132 11.7
2007-03-26 15:21:48 51°14.135 2°55.406 157.2 9.8 156 -999
2007-03-26 15:22:49 51°14.01 2°55.495 158 7.1 155 11.7
2007-03-26 15:23:48 51°13.908 2°55.568 158.3 6.4 155 11.7
2007-03-26 15:24:47 51°13.818 2°55.641 153.3 5.9 150 11.7
2007-03-26 15:25:46 51°13.744 2°55.734 140.5 5.7 137 12
2007-03-26 15:26:46 51°13.686 2°55.838 132 4.9 128 10.8
2007-03-26 15:27:46 51°13.643 2°55.931 129.1 4 126 11.1
2007-03-26 15:28:45 51°13.609 2°56.01 125 3.4 121 11.4
2007-03-26 15:29:47 51°13.599 2°56.094 94.3 1.7 98 7.3
2007-03-26 15:30:48 51°13.602 2°56.094 102.7 0.3 86 -999